Reno, NV

9:09 PM PDT on July 29, 2016 (GMT -0700)
UNR Campus, LMR Roof | | Change Station

Elev 4570 ft 39.54 °N, 119.81 °W | Updated 4 minutes ago

Partly Cloudy
Partly Cloudy
85.5 °F
Feels Like 83 °F
N
3.4
Wind Variable Wind from WNW

Today
High -- | Low -- °F
--% Chance of Precip.
Yesterday
High -- | Low -- °F
Precip. -- in
Pressure 29.80 in
Visibility 10.0 miles
Clouds Few 11000 ft
Few 18000 ft
Heat Index 83 °F
Dew Point 46 °F
Humidity 25%
Rainfall 0.00 in
Snow Depth Not available.
5:56 AM 8:14 PM
Waning Crescent, 16% visible
METAR KRNO 300355Z 02007G14KT 10SM FEW110 FEW180 32/06 A3001 RMK AO2 SLP091 T03220061
Pressure 29.80 in
Visibility 10.0 miles
Clouds Few 11000 ft
Few 18000 ft
Heat Index 83 °F
Dew Point 46 °F
Humidity 25%
Rainfall 0.00 in
Snow Depth Not available.
5:56 AM 8:14 PM
Waning Crescent, 16% visible
METAR KRNO 300355Z 02007G14KT 10SM FEW110 FEW180 32/06 A3001 RMK AO2 SLP091 T03220061

10-Day Weather Forecast

Almanac

Astronomy

Jul. 29, 2016 Rise Set
Actual Time
Civil Twilight
Nautical Twilight
Astronomical Twilight
Moon
Length of Visible Light
Length of Day
Tomorrow will be .
, % of the Moon is Illuminated

Today's Extremes

State Highs State Lows

Community

WunderPhotos

Upload Photos

1,928,500 photos uploaded!

WunderBlog® & News

Nearby

Air Quality

  Air Quality AQ Index Pollutant
Not available.

Snow Depth

Station Depth Elevation

Earthquake Activity

City Distance Mag. Time & Date
Minimum magnitude displayed is 2.5.

Coastal Water Temperatures

Place Temperature

Stations

Nearby Weather Stations

Station Location Temp. Windchill Dew Point Humidity Wind Precip. Elev Updated Type
                   

Watches & Warnings

There are currently no watches in effect.